sensor_id;sensor_type;location;lat;lon;timestamp;P1;durP1;ratioP1;P2;durP2;ratioP2
14268;SDS011;7218;51.480;7.006;2022-08-19T00:02:23;8.23;;;7.03;;
14268;SDS011;7218;51.480;7.006;2022-08-19T00:04:49;8.15;;;6.97;;
14268;SDS011;7218;51.480;7.006;2022-08-19T00:07:17;7.85;;;7.05;;
14268;SDS011;7218;51.480;7.006;2022-08-19T00:09:44;9.23;;;7.53;;
14268;SDS011;7218;51.480;7.006;2022-08-19T00:12:11;9.15;;;7.15;;
14268;SDS011;7218;51.480;7.006;2022-08-19T00:14:37;8.27;;;6.95;;
14268;SDS011;7218;51.480;7.006;2022-08-19T00:17:06;7.97;;;7.18;;
14268;SDS011;7218;51.480;7.006;2022-08-19T00:19:35;8.35;;;7.35;;
14268;SDS011;7218;51.480;7.006;2022-08-19T00:22:02;8.27;;;6.78;;
14268;SDS011;7218;51.480;7.006;2022-08-19T00:24:30;7.70;;;6.90;;
14268;SDS011;7218;51.480;7.006;2022-08-19T00:26:57;8.38;;;7.57;;
14268;SDS011;7218;51.480;7.006;2022-08-19T00:29:24;10.25;;;6.63;;
14268;SDS011;7218;51.480;7.006;2022-08-19T00:31:51;11.65;;;7.28;;
14268;SDS011;7218;51.480;7.006;2022-08-19T00:34:18;7.82;;;7.03;;
14268;SDS011;7218;51.480;7.006;2022-08-19T00:36:47;7.63;;;6.90;;
14268;SDS011;7218;51.480;7.006;2022-08-19T00:39:14;9.73;;;7.30;;
14268;SDS011;7218;51.480;7.006;2022-08-19T00:41:41;7.07;;;6.38;;
14268;SDS011;7218;51.480;7.006;2022-08-19T00:44:09;7.90;;;6.70;;
14268;SDS011;7218;51.480;7.006;2022-08-19T00:46:39;8.38;;;6.75;;
14268;SDS011;7218;51.480;7.006;2022-08-19T00:49:09;7.50;;;6.70;;
14268;SDS011;7218;51.480;7.006;2022-08-19T00:51:40;8.15;;;6.72;;
14268;SDS011;7218;51.480;7.006;2022-08-19T00:54:09;7.55;;;6.75;;
14268;SDS011;7218;51.480;7.006;2022-08-19T00:56:37;8.23;;;7.43;;
14268;SDS011;7218;51.480;7.006;2022-08-19T00:59:05;8.45;;;7.13;;
14268;SDS011;7218;51.480;7.006;2022-08-19T01:01:33;7.80;;;7.00;;
14268;SDS011;7218;51.480;7.006;2022-08-19T01:04:00;7.65;;;6.40;;
14268;SDS011;7218;51.480;7.006;2022-08-19T01:06:27;7.55;;;6.82;;
14268;SDS011;7218;51.480;7.006;2022-08-19T01:08:55;7.35;;;6.65;;
14268;SDS011;7218;51.480;7.006;2022-08-19T01:11:23;8.13;;;6.90;;
14268;SDS011;7218;51.480;7.006;2022-08-19T01:13:50;8.10;;;5.90;;
14268;SDS011;7218;51.480;7.006;2022-08-19T01:16:19;7.68;;;6.88;;
14268;SDS011;7218;51.480;7.006;2022-08-19T01:18:48;6.95;;;6.35;;
14268;SDS011;7218;51.480;7.006;2022-08-19T01:21:16;7.82;;;6.70;;
14268;SDS011;7218;51.480;7.006;2022-08-19T01:23:49;7.55;;;6.68;;
14268;SDS011;7218;51.480;7.006;2022-08-19T01:26:17;7.38;;;6.60;;
14268;SDS011;7218;51.480;7.006;2022-08-19T01:28:47;8.25;;;6.75;;
14268;SDS011;7218;51.480;7.006;2022-08-19T01:31:16;8.63;;;6.80;;
14268;SDS011;7218;51.480;7.006;2022-08-19T01:33:46;7.43;;;6.72;;
14268;SDS011;7218;51.480;7.006;2022-08-19T01:36:13;8.93;;;6.90;;
14268;SDS011;7218;51.480;7.006;2022-08-19T01:38:53;7.80;;;6.75;;
14268;SDS011;7218;51.480;7.006;2022-08-19T01:41:20;7.80;;;7.03;;
14268;SDS011;7218;51.480;7.006;2022-08-19T01:43:48;7.55;;;6.85;;
14268;SDS011;7218;51.480;7.006;2022-08-19T01:46:15;8.07;;;7.28;;
14268;SDS011;7218;51.480;7.006;2022-08-19T01:48:42;7.72;;;6.75;;
14268;SDS011;7218;51.480;7.006;2022-08-19T01:51:09;7.85;;;7.10;;
14268;SDS011;7218;51.480;7.006;2022-08-19T01:53:37;7.95;;;7.25;;
14268;SDS011;7218;51.480;7.006;2022-08-19T01:56:06;8.18;;;6.68;;
14268;SDS011;7218;51.480;7.006;2022-08-19T01:58:36;8.20;;;7.10;;
14268;SDS011;7218;51.480;7.006;2022-08-19T02:01:07;8.70;;;7.13;;
14268;SDS011;7218;51.480;7.006;2022-08-19T02:03:34;7.95;;;7.20;;
14268;SDS011;7218;51.480;7.006;2022-08-19T02:06:00;8.30;;;7.45;;
14268;SDS011;7218;51.480;7.006;2022-08-19T02:08:31;8.27;;;7.32;;
14268;SDS011;7218;51.480;7.006;2022-08-19T02:10:58;8.35;;;7.47;;
14268;SDS011;7218;51.480;7.006;2022-08-19T02:13:26;13.27;;;8.23;;
14268;SDS011;7218;51.480;7.006;2022-08-19T02:15:53;8.63;;;7.72;;
14268;SDS011;7218;51.480;7.006;2022-08-19T02:18:19;8.85;;;7.95;;
14268;SDS011;7218;51.480;7.006;2022-08-19T02:20:46;8.35;;;7.57;;
14268;SDS011;7218;51.480;7.006;2022-08-19T02:23:13;9.93;;;7.70;;
14268;SDS011;7218;51.480;7.006;2022-08-19T02:25:42;9.10;;;7.63;;
14268;SDS011;7218;51.480;7.006;2022-08-19T02:28:10;9.45;;;8.35;;
14268;SDS011;7218;51.480;7.006;2022-08-19T02:30:39;8.38;;;7.65;;
14268;SDS011;7218;51.480;7.006;2022-08-19T02:33:06;8.43;;;7.63;;
14268;SDS011;7218;51.480;7.006;2022-08-19T02:35:33;9.20;;;8.30;;
14268;SDS011;7218;51.480;7.006;2022-08-19T02:37:59;9.57;;;8.68;;
14268;SDS011;7218;51.480;7.006;2022-08-19T02:40:47;10.43;;;8.75;;
14268;SDS011;7218;51.480;7.006;2022-08-19T02:43:15;9.57;;;8.57;;
14268;SDS011;7218;51.480;7.006;2022-08-19T02:45:43;9.00;;;8.07;;
14268;SDS011;7218;51.480;7.006;2022-08-19T02:48:09;9.43;;;8.50;;
14268;SDS011;7218;51.480;7.006;2022-08-19T02:50:37;9.27;;;8.30;;
14268;SDS011;7218;51.480;7.006;2022-08-19T02:53:04;9.60;;;8.80;;
14268;SDS011;7218;51.480;7.006;2022-08-19T02:55:30;9.63;;;8.63;;
14268;SDS011;7218;51.480;7.006;2022-08-19T02:57:57;13.07;;;8.25;;
14268;SDS011;7218;51.480;7.006;2022-08-19T03:00:24;9.20;;;8.27;;
14268;SDS011;7218;51.480;7.006;2022-08-19T03:02:53;11.48;;;8.63;;
14268;SDS011;7218;51.480;7.006;2022-08-19T03:05:20;8.90;;;8.00;;
14268;SDS011;7218;51.480;7.006;2022-08-19T03:07:47;9.98;;;8.18;;
14268;SDS011;7218;51.480;7.006;2022-08-19T03:10:13;9.10;;;8.30;;
14268;SDS011;7218;51.480;7.006;2022-08-19T03:12:40;9.07;;;8.15;;
14268;SDS011;7218;51.480;7.006;2022-08-19T03:15:07;8.98;;;8.18;;
14268;SDS011;7218;51.480;7.006;2022-08-19T03:17:34;9.45;;;8.55;;
14268;SDS011;7218;51.480;7.006;2022-08-19T03:20:03;11.20;;;8.60;;
14268;SDS011;7218;51.480;7.006;2022-08-19T03:22:30;9.55;;;8.57;;
14268;SDS011;7218;51.480;7.006;2022-08-19T03:24:57;10.15;;;8.68;;
14268;SDS011;7218;51.480;7.006;2022-08-19T03:27:24;9.18;;;8.27;;
14268;SDS011;7218;51.480;7.006;2022-08-19T03:29:51;8.80;;;8.00;;
14268;SDS011;7218;51.480;7.006;2022-08-19T03:32:17;9.02;;;8.13;;
14268;SDS011;7218;51.480;7.006;2022-08-19T03:34:44;10.93;;;8.10;;
14268;SDS011;7218;51.480;7.006;2022-08-19T03:37:11;8.55;;;7.75;;
14268;SDS011;7218;51.480;7.006;2022-08-19T03:39:38;9.98;;;7.65;;
14268;SDS011;7218;51.480;7.006;2022-08-19T03:42:07;9.07;;;8.18;;
14268;SDS011;7218;51.480;7.006;2022-08-19T03:44:34;9.60;;;8.02;;
14268;SDS011;7218;51.480;7.006;2022-08-19T03:47:01;8.50;;;7.38;;
14268;SDS011;7218;51.480;7.006;2022-08-19T03:49:29;9.45;;;8.18;;
14268;SDS011;7218;51.480;7.006;2022-08-19T03:51:58;9.32;;;7.80;;
14268;SDS011;7218;51.480;7.006;2022-08-19T03:54:27;8.85;;;7.95;;
14268;SDS011;7218;51.480;7.006;2022-08-19T03:56:55;9.35;;;8.23;;
14268;SDS011;7218;51.480;7.006;2022-08-19T03:59:23;10.45;;;8.98;;
14268;SDS011;7218;51.480;7.006;2022-08-19T04:01:51;9.95;;;8.95;;
14268;SDS011;7218;51.480;7.006;2022-08-19T04:04:18;9.70;;;8.70;;
14268;SDS011;7218;51.480;7.006;2022-08-19T04:06:45;11.05;;;8.18;;
14268;SDS011;7218;51.480;7.006;2022-08-19T04:09:12;10.32;;;9.15;;
14268;SDS011;7218;51.480;7.006;2022-08-19T04:11:41;11.02;;;8.95;;
14268;SDS011;7218;51.480;7.006;2022-08-19T04:14:09;10.15;;;9.15;;
14268;SDS011;7218;51.480;7.006;2022-08-19T04:16:37;10.77;;;8.95;;
14268;SDS011;7218;51.480;7.006;2022-08-19T04:19:04;10.55;;;9.43;;
14268;SDS011;7218;51.480;7.006;2022-08-19T04:21:32;9.88;;;8.88;;
14268;SDS011;7218;51.480;7.006;2022-08-19T04:23:59;12.07;;;9.15;;
14268;SDS011;7218;51.480;7.006;2022-08-19T04:26:27;9.82;;;8.93;;
14268;SDS011;7218;51.480;7.006;2022-08-19T04:28:58;14.98;;;10.25;;
14268;SDS011;7218;51.480;7.006;2022-08-19T04:31:26;11.00;;;9.27;;
14268;SDS011;7218;51.480;7.006;2022-08-19T04:33:54;10.35;;;9.25;;
14268;SDS011;7218;51.480;7.006;2022-08-19T04:36:22;11.52;;;8.75;;
14268;SDS011;7218;51.480;7.006;2022-08-19T04:38:52;11.50;;;9.23;;
14268;SDS011;7218;51.480;7.006;2022-08-19T04:41:20;10.38;;;8.82;;
14268;SDS011;7218;51.480;7.006;2022-08-19T04:44:06;10.07;;;8.65;;
14268;SDS011;7218;51.480;7.006;2022-08-19T04:46:33;9.48;;;8.38;;
14268;SDS011;7218;51.480;7.006;2022-08-19T04:48:59;12.13;;;8.70;;
14268;SDS011;7218;51.480;7.006;2022-08-19T04:51:27;11.25;;;8.77;;
14268;SDS011;7218;51.480;7.006;2022-08-19T04:53:56;12.25;;;9.85;;
14268;SDS011;7218;51.480;7.006;2022-08-19T04:56:23;9.90;;;8.90;;
14268;SDS011;7218;51.480;7.006;2022-08-19T04:58:51;10.05;;;8.88;;
14268;SDS011;7218;51.480;7.006;2022-08-19T05:01:21;10.88;;;9.40;;
14268;SDS011;7218;51.480;7.006;2022-08-19T05:03:49;10.30;;;9.23;;
14268;SDS011;7218;51.480;7.006;2022-08-19T05:06:16;12.52;;;9.18;;
14268;SDS011;7218;51.480;7.006;2022-08-19T05:08:45;12.95;;;10.15;;
14268;SDS011;7218;51.480;7.006;2022-08-19T05:11:12;12.90;;;9.57;;
14268;SDS011;7218;51.480;7.006;2022-08-19T05:13:40;20.27;;;10.80;;
14268;SDS011;7218;51.480;7.006;2022-08-19T05:16:08;15.70;;;10.77;;
14268;SDS011;7218;51.480;7.006;2022-08-19T05:18:38;14.35;;;11.05;;
14268;SDS011;7218;51.480;7.006;2022-08-19T05:21:22;13.57;;;10.27;;
14268;SDS011;7218;51.480;7.006;2022-08-19T05:24:07;12.45;;;11.00;;
14268;SDS011;7218;51.480;7.006;2022-08-19T05:26:34;13.07;;;10.88;;
14268;SDS011;7218;51.480;7.006;2022-08-19T05:29:00;14.45;;;11.02;;
14268;SDS011;7218;51.480;7.006;2022-08-19T05:31:28;14.85;;;10.55;;
14268;SDS011;7218;51.480;7.006;2022-08-19T05:33:56;15.77;;;10.98;;
14268;SDS011;7218;51.480;7.006;2022-08-19T05:36:23;14.10;;;10.57;;
14268;SDS011;7218;51.480;7.006;2022-08-19T05:38:50;14.57;;;10.50;;
14268;SDS011;7218;51.480;7.006;2022-08-19T05:41:18;15.27;;;10.63;;
14268;SDS011;7218;51.480;7.006;2022-08-19T05:43:45;12.75;;;9.80;;
14268;SDS011;7218;51.480;7.006;2022-08-19T05:46:16;13.40;;;10.40;;
14268;SDS011;7218;51.480;7.006;2022-08-19T05:48:43;14.05;;;10.95;;
14268;SDS011;7218;51.480;7.006;2022-08-19T05:51:11;14.85;;;10.70;;
14268;SDS011;7218;51.480;7.006;2022-08-19T05:53:38;11.70;;;10.40;;
14268;SDS011;7218;51.480;7.006;2022-08-19T05:56:04;12.50;;;10.30;;
14268;SDS011;7218;51.480;7.006;2022-08-19T05:58:32;16.40;;;11.00;;
14268;SDS011;7218;51.480;7.006;2022-08-19T06:00:58;16.98;;;11.73;;
14268;SDS011;7218;51.480;7.006;2022-08-19T06:03:29;15.60;;;11.07;;
14268;SDS011;7218;51.480;7.006;2022-08-19T06:05:56;16.52;;;11.90;;
14268;SDS011;7218;51.480;7.006;2022-08-19T06:08:25;17.50;;;12.98;;
14268;SDS011;7218;51.480;7.006;2022-08-19T06:10:55;17.80;;;13.70;;
14268;SDS011;7218;51.480;7.006;2022-08-19T06:13:21;21.70;;;15.93;;
14268;SDS011;7218;51.480;7.006;2022-08-19T06:15:49;20.20;;;17.02;;
14268;SDS011;7218;51.480;7.006;2022-08-19T06:18:15;22.17;;;19.25;;
14268;SDS011;7218;51.480;7.006;2022-08-19T06:20:42;21.42;;;18.83;;
14268;SDS011;7218;51.480;7.006;2022-08-19T06:23:09;22.95;;;20.55;;
14268;SDS011;7218;51.480;7.006;2022-08-19T06:25:36;23.15;;;19.92;;
14268;SDS011;7218;51.480;7.006;2022-08-19T06:28:05;23.00;;;19.27;;
14268;SDS011;7218;51.480;7.006;2022-08-19T06:30:31;22.75;;;20.38;;
14268;SDS011;7218;51.480;7.006;2022-08-19T06:32:58;22.25;;;19.40;;
14268;SDS011;7218;51.480;7.006;2022-08-19T06:35:24;24.38;;;20.70;;
14268;SDS011;7218;51.480;7.006;2022-08-19T06:37:51;23.73;;;21.05;;
14268;SDS011;7218;51.480;7.006;2022-08-19T06:40:19;23.38;;;19.70;;
14268;SDS011;7218;51.480;7.006;2022-08-19T06:42:47;26.55;;;23.05;;
14268;SDS011;7218;51.480;7.006;2022-08-19T06:45:14;29.38;;;22.73;;
14268;SDS011;7218;51.480;7.006;2022-08-19T06:47:40;26.55;;;22.13;;
14268;SDS011;7218;51.480;7.006;2022-08-19T06:50:13;25.60;;;22.35;;
14268;SDS011;7218;51.480;7.006;2022-08-19T06:52:39;27.88;;;23.98;;
14268;SDS011;7218;51.480;7.006;2022-08-19T06:55:06;29.17;;;24.15;;
14268;SDS011;7218;51.480;7.006;2022-08-19T06:57:33;35.55;;;25.35;;
14268;SDS011;7218;51.480;7.006;2022-08-19T07:00:01;32.90;;;27.52;;
14268;SDS011;7218;51.480;7.006;2022-08-19T07:02:29;32.63;;;27.33;;
14268;SDS011;7218;51.480;7.006;2022-08-19T07:04:55;33.13;;;28.05;;
14268;SDS011;7218;51.480;7.006;2022-08-19T07:07:23;35.00;;;26.75;;
14268;SDS011;7218;51.480;7.006;2022-08-19T07:09:51;32.42;;;27.45;;
14268;SDS011;7218;51.480;7.006;2022-08-19T07:12:18;36.53;;;27.88;;
14268;SDS011;7218;51.480;7.006;2022-08-19T07:14:45;32.90;;;27.50;;
14268;SDS011;7218;51.480;7.006;2022-08-19T07:17:13;32.50;;;27.15;;
14268;SDS011;7218;51.480;7.006;2022-08-19T07:19:39;31.23;;;26.08;;
14268;SDS011;7218;51.480;7.006;2022-08-19T07:22:07;33.33;;;26.48;;
14268;SDS011;7218;51.480;7.006;2022-08-19T07:24:35;33.13;;;28.05;;
14268;SDS011;7218;51.480;7.006;2022-08-19T07:27:04;36.75;;;27.83;;
14268;SDS011;7218;51.480;7.006;2022-08-19T07:29:32;31.77;;;26.98;;
14268;SDS011;7218;51.480;7.006;2022-08-19T07:32:00;32.60;;;26.85;;
14268;SDS011;7218;51.480;7.006;2022-08-19T07:34:30;33.15;;;27.70;;
14268;SDS011;7218;51.480;7.006;2022-08-19T07:36:59;33.42;;;26.85;;
14268;SDS011;7218;51.480;7.006;2022-08-19T07:39:26;32.90;;;28.42;;
14268;SDS011;7218;51.480;7.006;2022-08-19T07:41:55;33.55;;;27.83;;
14268;SDS011;7218;51.480;7.006;2022-08-19T07:44:24;33.25;;;27.92;;
14268;SDS011;7218;51.480;7.006;2022-08-19T07:46:51;32.80;;;27.52;;
14268;SDS011;7218;51.480;7.006;2022-08-19T07:49:20;33.58;;;27.67;;
14268;SDS011;7218;51.480;7.006;2022-08-19T07:51:50;36.13;;;29.85;;
14268;SDS011;7218;51.480;7.006;2022-08-19T07:54:19;35.20;;;28.98;;
14268;SDS011;7218;51.480;7.006;2022-08-19T07:56:46;33.45;;;29.75;;
14268;SDS011;7218;51.480;7.006;2022-08-19T07:59:14;34.78;;;30.17;;
14268;SDS011;7218;51.480;7.006;2022-08-19T08:01:42;35.20;;;31.17;;
14268;SDS011;7218;51.480;7.006;2022-08-19T08:04:10;37.25;;;30.85;;
14268;SDS011;7218;51.480;7.006;2022-08-19T08:06:55;36.38;;;31.10;;
14268;SDS011;7218;51.480;7.006;2022-08-19T08:09:40;36.03;;;31.38;;
14268;SDS011;7218;51.480;7.006;2022-08-19T08:12:10;35.78;;;31.65;;
14268;SDS011;7218;51.480;7.006;2022-08-19T08:14:38;38.85;;;32.22;;
14268;SDS011;7218;51.480;7.006;2022-08-19T08:17:07;39.65;;;33.20;;
14268;SDS011;7218;51.480;7.006;2022-08-19T08:19:34;37.22;;;32.47;;
14268;SDS011;7218;51.480;7.006;2022-08-19T08:22:03;39.90;;;33.30;;
14268;SDS011;7218;51.480;7.006;2022-08-19T08:24:31;40.35;;;33.28;;
14268;SDS011;7218;51.480;7.006;2022-08-19T08:26:58;41.88;;;33.08;;
14268;SDS011;7218;51.480;7.006;2022-08-19T08:29:26;40.17;;;30.55;;
14268;SDS011;7218;51.480;7.006;2022-08-19T08:31:55;38.70;;;33.92;;
14268;SDS011;7218;51.480;7.006;2022-08-19T08:34:21;39.55;;;33.30;;
14268;SDS011;7218;51.480;7.006;2022-08-19T08:36:48;35.90;;;31.98;;
14268;SDS011;7218;51.480;7.006;2022-08-19T08:39:18;35.47;;;31.67;;
14268;SDS011;7218;51.480;7.006;2022-08-19T08:41:49;34.85;;;30.50;;
14268;SDS011;7218;51.480;7.006;2022-08-19T08:44:20;37.13;;;33.10;;
14268;SDS011;7218;51.480;7.006;2022-08-19T08:46:49;34.10;;;29.73;;
14268;SDS011;7218;51.480;7.006;2022-08-19T08:49:23;34.17;;;30.45;;
14268;SDS011;7218;51.480;7.006;2022-08-19T08:51:59;38.65;;;34.50;;
14268;SDS011;7218;51.480;7.006;2022-08-19T08:54:32;35.75;;;30.90;;
14268;SDS011;7218;51.480;7.006;2022-08-19T08:57:02;34.30;;;29.63;;
14268;SDS011;7218;51.480;7.006;2022-08-19T08:59:31;38.90;;;33.97;;
14268;SDS011;7218;51.480;7.006;2022-08-19T09:02:02;34.85;;;29.40;;
14268;SDS011;7218;51.480;7.006;2022-08-19T09:04:29;33.20;;;29.25;;
14268;SDS011;7218;51.480;7.006;2022-08-19T09:07:02;31.20;;;26.80;;
14268;SDS011;7218;51.480;7.006;2022-08-19T09:09:45;29.73;;;26.45;;
14268;SDS011;7218;51.480;7.006;2022-08-19T09:12:16;27.83;;;24.85;;
14268;SDS011;7218;51.480;7.006;2022-08-19T09:14:50;27.40;;;24.25;;
14268;SDS011;7218;51.480;7.006;2022-08-19T09:17:23;28.63;;;23.85;;
14268;SDS011;7218;51.480;7.006;2022-08-19T09:19:57;24.50;;;21.30;;
14268;SDS011;7218;51.480;7.006;2022-08-19T09:22:29;23.00;;;20.55;;
14268;SDS011;7218;51.480;7.006;2022-08-19T09:24:57;22.90;;;20.00;;
14268;SDS011;7218;51.480;7.006;2022-08-19T09:27:24;23.20;;;18.60;;
14268;SDS011;7218;51.480;7.006;2022-08-19T09:29:52;19.58;;;17.48;;
14268;SDS011;7218;51.480;7.006;2022-08-19T09:32:19;17.90;;;15.93;;
14268;SDS011;7218;51.480;7.006;2022-08-19T09:34:46;17.55;;;15.13;;
14268;SDS011;7218;51.480;7.006;2022-08-19T09:37:13;14.90;;;12.77;;
14268;SDS011;7218;51.480;7.006;2022-08-19T09:39:40;17.73;;;13.27;;
14268;SDS011;7218;51.480;7.006;2022-08-19T09:42:08;13.57;;;12.05;;
14268;SDS011;7218;51.480;7.006;2022-08-19T09:44:37;16.88;;;14.35;;
14268;SDS011;7218;51.480;7.006;2022-08-19T09:47:03;19.33;;;14.95;;
14268;SDS011;7218;51.480;7.006;2022-08-19T09:49:30;16.67;;;14.38;;
14268;SDS011;7218;51.480;7.006;2022-08-19T09:51:57;16.85;;;13.68;;
14268;SDS011;7218;51.480;7.006;2022-08-19T09:54:23;15.55;;;13.57;;
14268;SDS011;7218;51.480;7.006;2022-08-19T09:56:50;15.43;;;12.63;;
14268;SDS011;7218;51.480;7.006;2022-08-19T09:59:18;16.67;;;14.35;;
14268;SDS011;7218;51.480;7.006;2022-08-19T10:01:44;17.13;;;14.93;;
14268;SDS011;7218;51.480;7.006;2022-08-19T10:04:11;17.58;;;15.30;;
14268;SDS011;7218;51.480;7.006;2022-08-19T10:06:38;18.85;;;14.98;;
14268;SDS011;7218;51.480;7.006;2022-08-19T10:09:07;19.17;;;15.98;;
14268;SDS011;7218;51.480;7.006;2022-08-19T10:11:35;18.25;;;16.13;;
14268;SDS011;7218;51.480;7.006;2022-08-19T10:14:05;20.67;;;15.85;;
14268;SDS011;7218;51.480;7.006;2022-08-19T10:16:34;18.90;;;16.70;;
14268;SDS011;7218;51.480;7.006;2022-08-19T10:19:04;17.13;;;14.93;;
14268;SDS011;7218;51.480;7.006;2022-08-19T10:21:31;17.60;;;15.77;;
14268;SDS011;7218;51.480;7.006;2022-08-19T10:24:00;17.73;;;15.82;;
14268;SDS011;7218;51.480;7.006;2022-08-19T10:26:30;20.25;;;17.15;;
14268;SDS011;7218;51.480;7.006;2022-08-19T10:28:59;17.40;;;15.25;;
14268;SDS011;7218;51.480;7.006;2022-08-19T10:31:26;20.77;;;16.27;;
14268;SDS011;7218;51.480;7.006;2022-08-19T10:33:56;22.33;;;17.15;;
14268;SDS011;7218;51.480;7.006;2022-08-19T10:36:23;25.15;;;18.65;;
14268;SDS011;7218;51.480;7.006;2022-08-19T10:38:53;18.38;;;16.48;;
14268;SDS011;7218;51.480;7.006;2022-08-19T10:41:23;20.70;;;18.48;;
14268;SDS011;7218;51.480;7.006;2022-08-19T10:43:51;19.00;;;17.00;;
14268;SDS011;7218;51.480;7.006;2022-08-19T10:46:19;20.60;;;16.38;;
14268;SDS011;7218;51.480;7.006;2022-08-19T10:48:48;18.67;;;16.73;;
14268;SDS011;7218;51.480;7.006;2022-08-19T10:51:16;18.92;;;15.35;;
14268;SDS011;7218;51.480;7.006;2022-08-19T10:54:01;21.88;;;16.13;;
14268;SDS011;7218;51.480;7.006;2022-08-19T10:56:29;18.48;;;16.67;;
14268;SDS011;7218;51.480;7.006;2022-08-19T10:59:14;20.35;;;17.70;;
14268;SDS011;7218;51.480;7.006;2022-08-19T11:01:43;19.50;;;16.77;;
14268;SDS011;7218;51.480;7.006;2022-08-19T11:04:11;18.33;;;16.42;;
14268;SDS011;7218;51.480;7.006;2022-08-19T11:06:40;25.10;;;21.45;;
14268;SDS011;7218;51.480;7.006;2022-08-19T11:09:08;21.90;;;18.42;;
14268;SDS011;7218;51.480;7.006;2022-08-19T11:11:36;22.60;;;14.80;;
14268;SDS011;7218;51.480;7.006;2022-08-19T11:14:05;18.52;;;15.35;;
14268;SDS011;7218;51.480;7.006;2022-08-19T11:16:32;16.75;;;15.10;;
14268;SDS011;7218;51.480;7.006;2022-08-19T11:18:58;16.75;;;13.68;;
14268;SDS011;7218;51.480;7.006;2022-08-19T11:21:26;18.60;;;12.77;;
14268;SDS011;7218;51.480;7.006;2022-08-19T11:23:58;16.67;;;14.23;;
14268;SDS011;7218;51.480;7.006;2022-08-19T11:26:27;14.27;;;12.93;;
14268;SDS011;7218;51.480;7.006;2022-08-19T11:28:54;14.95;;;12.52;;
14268;SDS011;7218;51.480;7.006;2022-08-19T11:31:21;15.30;;;13.48;;
14268;SDS011;7218;51.480;7.006;2022-08-19T11:33:49;13.80;;;12.50;;
14268;SDS011;7218;51.480;7.006;2022-08-19T11:36:18;14.27;;;12.77;;
14268;SDS011;7218;51.480;7.006;2022-08-19T11:38:46;13.15;;;11.73;;
14268;SDS011;7218;51.480;7.006;2022-08-19T11:41:15;12.70;;;10.65;;
14268;SDS011;7218;51.480;7.006;2022-08-19T11:43:43;13.52;;;12.13;;
14268;SDS011;7218;51.480;7.006;2022-08-19T11:46:10;12.60;;;10.40;;
14268;SDS011;7218;51.480;7.006;2022-08-19T11:48:39;10.90;;;9.23;;
14268;SDS011;7218;51.480;7.006;2022-08-19T11:51:06;11.25;;;10.15;;
14268;SDS011;7218;51.480;7.006;2022-08-19T11:53:35;10.27;;;9.38;;
14268;SDS011;7218;51.480;7.006;2022-08-19T11:56:02;11.35;;;8.75;;
14268;SDS011;7218;51.480;7.006;2022-08-19T11:58:31;8.70;;;7.90;;
14268;SDS011;7218;51.480;7.006;2022-08-19T12:00:58;9.38;;;8.25;;
14268;SDS011;7218;51.480;7.006;2022-08-19T12:03:24;10.60;;;9.27;;
14268;SDS011;7218;51.480;7.006;2022-08-19T12:05:51;11.02;;;9.68;;
14268;SDS011;7218;51.480;7.006;2022-08-19T12:08:18;10.68;;;9.63;;
14268;SDS011;7218;51.480;7.006;2022-08-19T12:10:45;11.20;;;8.70;;
14268;SDS011;7218;51.480;7.006;2022-08-19T12:13:12;9.43;;;7.32;;
14268;SDS011;7218;51.480;7.006;2022-08-19T12:15:41;9.05;;;6.78;;
14268;SDS011;7218;51.480;7.006;2022-08-19T12:18:10;8.25;;;7.07;;
14268;SDS011;7218;51.480;7.006;2022-08-19T12:20:39;9.55;;;6.28;;
14268;SDS011;7218;51.480;7.006;2022-08-19T12:23:07;7.95;;;7.10;;
14268;SDS011;7218;51.480;7.006;2022-08-19T12:25:34;8.27;;;6.90;;
14268;SDS011;7218;51.480;7.006;2022-08-19T12:28:02;7.82;;;6.78;;
14268;SDS011;7218;51.480;7.006;2022-08-19T12:30:29;10.07;;;6.78;;
14268;SDS011;7218;51.480;7.006;2022-08-19T12:32:57;8.75;;;6.60;;
14268;SDS011;7218;51.480;7.006;2022-08-19T12:35:24;9.65;;;6.35;;
14268;SDS011;7218;51.480;7.006;2022-08-19T12:37:50;8.02;;;7.10;;
14268;SDS011;7218;51.480;7.006;2022-08-19T12:40:17;8.05;;;6.72;;
14268;SDS011;7218;51.480;7.006;2022-08-19T12:42:44;7.68;;;6.43;;
14268;SDS011;7218;51.480;7.006;2022-08-19T12:45:12;8.85;;;6.65;;
14268;SDS011;7218;51.480;7.006;2022-08-19T12:47:39;6.88;;;5.32;;
14268;SDS011;7218;51.480;7.006;2022-08-19T12:50:07;9.38;;;6.95;;
14268;SDS011;7218;51.480;7.006;2022-08-19T12:52:34;10.93;;;7.10;;
14268;SDS011;7218;51.480;7.006;2022-08-19T12:55:03;8.68;;;5.78;;
14268;SDS011;7218;51.480;7.006;2022-08-19T12:57:31;9.13;;;5.60;;
14268;SDS011;7218;51.480;7.006;2022-08-19T13:00:03;6.78;;;5.15;;
14268;SDS011;7218;51.480;7.006;2022-08-19T13:02:34;6.88;;;5.55;;
14268;SDS011;7218;51.480;7.006;2022-08-19T13:05:01;6.32;;;5.72;;
14268;SDS011;7218;51.480;7.006;2022-08-19T13:07:29;7.75;;;5.10;;
14268;SDS011;7218;51.480;7.006;2022-08-19T13:09:58;5.72;;;5.10;;
14268;SDS011;7218;51.480;7.006;2022-08-19T13:12:25;10.07;;;5.15;;
14268;SDS011;7218;51.480;7.006;2022-08-19T13:14:51;6.22;;;5.60;;
14268;SDS011;7218;51.480;7.006;2022-08-19T13:17:18;8.25;;;5.50;;
14268;SDS011;7218;51.480;7.006;2022-08-19T13:19:44;5.75;;;5.03;;
14268;SDS011;7218;51.480;7.006;2022-08-19T13:22:11;9.27;;;5.00;;
14268;SDS011;7218;51.480;7.006;2022-08-19T13:24:39;7.80;;;5.03;;
14268;SDS011;7218;51.480;7.006;2022-08-19T13:27:05;6.18;;;4.97;;
14268;SDS011;7218;51.480;7.006;2022-08-19T13:29:32;5.20;;;4.70;;
14268;SDS011;7218;51.480;7.006;2022-08-19T13:32:16;6.25;;;4.75;;
14268;SDS011;7218;51.480;7.006;2022-08-19T13:35:00;5.50;;;4.70;;
14268;SDS011;7218;51.480;7.006;2022-08-19T13:37:27;7.28;;;4.70;;
14268;SDS011;7218;51.480;7.006;2022-08-19T13:40:09;7.57;;;4.20;;
14268;SDS011;7218;51.480;7.006;2022-08-19T13:42:39;4.80;;;4.20;;
14268;SDS011;7218;51.480;7.006;2022-08-19T13:45:06;4.82;;;4.40;;
14268;SDS011;7218;51.480;7.006;2022-08-19T13:47:33;5.63;;;4.43;;
14268;SDS011;7218;51.480;7.006;2022-08-19T13:50:00;4.80;;;4.00;;
14268;SDS011;7218;51.480;7.006;2022-08-19T13:52:28;6.30;;;4.00;;
14268;SDS011;7218;51.480;7.006;2022-08-19T13:54:57;4.97;;;4.25;;
14268;SDS011;7218;51.480;7.006;2022-08-19T13:57:25;6.47;;;4.50;;
14268;SDS011;7218;51.480;7.006;2022-08-19T13:59:51;6.38;;;4.18;;
14268;SDS011;7218;51.480;7.006;2022-08-19T14:02:18;6.25;;;4.30;;
14268;SDS011;7218;51.480;7.006;2022-08-19T14:04:45;10.18;;;4.22;;
14268;SDS011;7218;51.480;7.006;2022-08-19T14:07:11;9.25;;;4.70;;
14268;SDS011;7218;51.480;7.006;2022-08-19T14:09:39;5.38;;;4.38;;
14268;SDS011;7218;51.480;7.006;2022-08-19T14:12:05;10.10;;;4.90;;
14268;SDS011;7218;51.480;7.006;2022-08-19T14:14:37;8.73;;;4.78;;
14268;SDS011;7218;51.480;7.006;2022-08-19T14:17:05;8.38;;;4.57;;
14268;SDS011;7218;51.480;7.006;2022-08-19T14:19:32;7.22;;;4.90;;
14268;SDS011;7218;51.480;7.006;2022-08-19T14:21:59;8.98;;;5.30;;
14268;SDS011;7218;51.480;7.006;2022-08-19T14:24:25;7.00;;;5.57;;
14268;SDS011;7218;51.480;7.006;2022-08-19T14:26:52;8.43;;;5.55;;
14268;SDS011;7218;51.480;7.006;2022-08-19T14:29:19;8.68;;;5.22;;
14268;SDS011;7218;51.480;7.006;2022-08-19T14:31:46;9.57;;;7.10;;
14268;SDS011;7218;51.480;7.006;2022-08-19T14:34:13;6.30;;;5.45;;
14268;SDS011;7218;51.480;7.006;2022-08-19T14:36:40;9.75;;;4.93;;
14268;SDS011;7218;51.480;7.006;2022-08-19T14:39:06;7.95;;;4.75;;
14268;SDS011;7218;51.480;7.006;2022-08-19T14:41:35;8.13;;;4.40;;
14268;SDS011;7218;51.480;7.006;2022-08-19T14:44:02;5.40;;;4.55;;
14268;SDS011;7218;51.480;7.006;2022-08-19T14:46:29;7.95;;;4.20;;
14268;SDS011;7218;51.480;7.006;2022-08-19T14:48:57;8.88;;;5.78;;
14268;SDS011;7218;51.480;7.006;2022-08-19T14:51:24;9.18;;;7.40;;
14268;SDS011;7218;51.480;7.006;2022-08-19T14:53:51;8.15;;;5.38;;
14268;SDS011;7218;51.480;7.006;2022-08-19T14:56:19;7.75;;;5.15;;